PWSweather.com
Personal Weather Stations
Station Observations
PICKERING
North Yorkshire, PickeringGB

North YorkshirePickeringGB

Lat: 54.2494, Lon: -0.7725

Elevation: 192

Station Type: Oregon Scientific WMR100

http://www.yorkshirewalker.co.uk/weather/

High Low Average
Temperature 45.5°F7.5°C 34.5°F1.4°C 40.7°F4.8°C
Dew Point 42.8°F6.0°C 32.0°F0.0°C 37.5°F3.1°C
Winds 8.0 mph 12.9 kmh Calm Calm 2.0 mph S3.2 kmh S
Wind Gusts 12.1 mph19.5 kmh -- 4.0 mph6.4 kmh
Humidity 89% 82% 87%
Pressure 29.50 in999.0 mb 29.06 in984.1 mb -
Precipitation 0.00 in0.0 mm - -
Hour Temp Dew Point Humidity Winds Wind Gusts Pressure Precip Precip Rate Daily Precip Total
12:00 AM 44.1°F6.7°C 41.0°F5.0°C 88% 5.8 mph S9.3 kmh S 10.7 mph17.2 kmh 29.39 in995.3 mb 0.00 in0.0 mm 0.00 in0.0 mm 0.00 in0.0 mm
12:05 AM 44.1°F6.7°C 41.0°F5.0°C 88% 6.5 mph S10.5 kmh S 10.7 mph17.2 kmh 29.39 in995.3 mb 0.00 in0.0 mm 0.00 in0.0 mm 0.00 in0.0 mm
12:10 AM 44.1°F6.7°C 41.0°F5.0°C 88% 7.2 mph S11.6 kmh S 12.1 mph19.5 kmh 29.39 in995.3 mb 0.00 in0.0 mm 0.00 in0.0 mm 0.00 in0.0 mm
12:15 AM 44.1°F6.7°C 41.0°F5.0°C 88% 6.6 mph SSW10.6 kmh SSW 12.1 mph19.5 kmh 29.39 in995.3 mb 0.00 in0.0 mm 0.00 in0.0 mm 0.00 in0.0 mm
12:20 AM 44.2°F6.8°C 41.0°F5.0°C 88% 5.8 mph S9.3 kmh S 11.9 mph19.2 kmh 29.39 in995.3 mb 0.00 in0.0 mm 0.00 in0.0 mm 0.00 in0.0 mm
12:25 AM 44.2°F6.8°C 41.0°F5.0°C 88% 5.3 mph SSW8.5 kmh SSW 11.9 mph19.2 kmh 29.39 in995.3 mb 0.00 in0.0 mm 0.00 in0.0 mm 0.00 in0.0 mm
12:30 AM 44.2°F6.8°C 41.0°F5.0°C 88% 6.1 mph SSW9.8 kmh SSW 10.5 mph16.9 kmh 29.39 in995.3 mb 0.00 in0.0 mm 0.00 in0.0 mm 0.00 in0.0 mm
12:35 AM 44.4°F6.9°C 41.0°F5.0°C 88% 7.3 mph SSW11.7 kmh SSW 12.1 mph19.5 kmh 29.39 in995.3 mb 0.00 in0.0 mm 0.00 in0.0 mm 0.00 in0.0 mm
12:40 AM 44.4°F6.9°C 41.0°F5.0°C 88% 7.6 mph SSW12.2 kmh SSW 12.1 mph19.5 kmh 29.39 in995.3 mb 0.00 in0.0 mm 0.00 in0.0 mm 0.00 in0.0 mm
12:45 AM 44.4°F6.9°C 41.0°F5.0°C 88% 8.0 mph SSW12.9 kmh SSW 11.0 mph17.7 kmh 29.39 in995.3 mb 0.00 in0.0 mm 0.00 in0.0 mm 0.00 in0.0 mm
12:50 AM 44.6°F7.0°C 41.0°F5.0°C 88% 6.9 mph SSW11.1 kmh SSW 11.0 mph17.7 kmh 29.39 in995.3 mb 0.00 in0.0 mm 0.00 in0.0 mm 0.00 in0.0 mm
12:55 AM 44.6°F7.0°C 41.0°F5.0°C 88% 5.3 mph SSW8.5 kmh SSW 10.3 mph16.6 kmh 29.39 in995.3 mb 0.00 in0.0 mm 0.00 in0.0 mm 0.00 in0.0 mm
01:00 AM 44.6°F7.0°C 41.0°F5.0°C 88% 5.0 mph SSW8.0 kmh SSW 9.4 mph15.1 kmh 29.39 in995.3 mb 0.00 in0.0 mm 0.00 in0.0 mm 0.00 in0.0 mm
01:05 AM 44.4°F6.9°C 41.0°F5.0°C 88% 5.1 mph SSW8.2 kmh SSW 8.5 mph13.7 kmh 29.41 in995.9 mb 0.00 in0.0 mm 0.00 in0.0 mm 0.00 in0.0 mm
01:10 AM 44.4°F6.9°C 42.8°F6.0°C 89% 4.5 mph SSW7.2 kmh SSW 7.6 mph12.2 kmh 29.41 in995.9 mb 0.00 in0.0 mm 0.00 in0.0 mm 0.00 in0.0 mm
01:15 AM 44.4°F6.9°C 42.8°F6.0°C 89% 3.5 mph SW5.6 kmh SW 6.5 mph10.5 kmh 29.41 in995.9 mb 0.00 in0.0 mm 0.00 in0.0 mm 0.00 in0.0 mm
01:20 AM 44.2°F6.8°C 41.0°F5.0°C 89% 2.5 mph SW4.0 kmh SW 3.8 mph6.1 kmh 29.45 in997.3 mb 0.00 in0.0 mm 0.00 in0.0 mm 0.00 in0.0 mm
01:25 AM 44.4°F6.9°C 42.8°F6.0°C 89% 2.0 mph SW3.2 kmh SW 4.3 mph6.9 kmh 29.45 in997.3 mb 0.00 in0.0 mm 0.00 in0.0 mm 0.00 in0.0 mm
01:30 AM 44.4°F6.9°C 42.8°F6.0°C 89% 1.4 mph S2.3 kmh S 4.5 mph7.2 kmh 29.45 in997.3 mb 0.00 in0.0 mm 0.00 in0.0 mm 0.00 in0.0 mm
01:35 AM 44.4°F6.9°C 42.8°F6.0°C 89% 1.7 mph S2.7 kmh S 4.5 mph7.2 kmh 29.45 in997.3 mb 0.00 in0.0 mm 0.00 in0.0 mm 0.00 in0.0 mm
01:40 AM 44.2°F6.8°C 41.0°F5.0°C 89% 1.2 mph SSW1.9 kmh SSW 2.9 mph4.7 kmh 29.45 in997.3 mb 0.00 in0.0 mm 0.00 in0.0 mm 0.00 in0.0 mm
01:45 AM 44.2°F6.8°C 41.0°F5.0°C 89% 1.1 mph SSW1.8 kmh SSW 2.9 mph4.7 kmh 29.45 in997.3 mb 0.00 in0.0 mm 0.00 in0.0 mm 0.00 in0.0 mm
01:50 AM 44.2°F6.8°C 41.0°F5.0°C 89% 1.2 mph SW1.9 kmh SW 2.2 mph3.5 kmh 29.45 in997.3 mb 0.00 in0.0 mm 0.00 in0.0 mm 0.00 in0.0 mm
01:55 AM 44.2°F6.8°C 41.0°F5.0°C 89% 0.9 mph SW1.4 kmh SW 2.0 mph3.2 kmh 29.45 in997.3 mb 0.00 in0.0 mm 0.00 in0.0 mm 0.00 in0.0 mm
02:00 AM 44.1°F6.7°C 41.0°F5.0°C 89% 1.3 mph SW2.1 kmh SW 3.8 mph6.1 kmh 29.45 in997.3 mb 0.00 in0.0 mm 0.00 in0.0 mm 0.00 in0.0 mm
02:05 AM 44.2°F6.8°C 41.0°F5.0°C 89% 1.3 mph SW2.1 kmh SW 3.8 mph6.1 kmh 29.45 in997.3 mb 0.00 in0.0 mm 0.00 in0.0 mm 0.00 in0.0 mm
02:10 AM 44.1°F6.7°C 41.0°F5.0°C 89% 1.1 mph SW1.8 kmh SW 2.5 mph4.0 kmh 29.45 in997.3 mb 0.00 in0.0 mm 0.00 in0.0 mm 0.00 in0.0 mm
02:15 AM 44.1°F6.7°C 41.0°F5.0°C 89% 1.5 mph WSW2.4 kmh WSW 2.9 mph4.7 kmh 29.45 in997.3 mb 0.00 in0.0 mm 0.00 in0.0 mm 0.00 in0.0 mm
02:20 AM 44.1°F6.7°C 41.0°F5.0°C 89% 1.3 mph WSW2.1 kmh WSW 2.9 mph4.7 kmh 29.41 in995.9 mb 0.00 in0.0 mm 0.00 in0.0 mm 0.00 in0.0 mm
02:25 AM 43.7°F6.5°C 41.0°F5.0°C 89% 1.0 mph WSW1.6 kmh WSW 2.0 mph3.2 kmh 29.41 in995.9 mb 0.00 in0.0 mm 0.00 in0.0 mm 0.00 in0.0 mm
02:30 AM 43.5°F6.4°C 41.0°F5.0°C 89% 0.7 mph WSW1.1 kmh WSW 2.0 mph3.2 kmh 29.41 in995.9 mb 0.00 in0.0 mm 0.00 in0.0 mm 0.00 in0.0 mm
02:35 AM 43.3°F6.3°C 41.0°F5.0°C 89% 0.4 mph WSW0.6 kmh WSW 2.0 mph3.2 kmh 29.18 in988.1 mb 0.00 in0.0 mm 0.00 in0.0 mm 0.00 in0.0 mm
02:40 AM 43.2°F6.2°C 41.0°F5.0°C 89% 0.2 mph WSW0.3 kmh WSW 1.6 mph2.6 kmh 29.18 in988.1 mb 0.00 in0.0 mm 0.00 in0.0 mm 0.00 in0.0 mm
02:45 AM 43.2°F6.2°C 41.0°F5.0°C 89% 0.6 mph WSW1.0 kmh WSW 1.6 mph2.6 kmh 29.18 in988.1 mb 0.00 in0.0 mm 0.00 in0.0 mm 0.00 in0.0 mm
02:50 AM 43.0°F6.1°C 41.0°F5.0°C 89% 1.1 mph WSW1.8 kmh WSW 3.1 mph5.0 kmh 29.45 in997.3 mb 0.00 in0.0 mm 0.00 in0.0 mm 0.00 in0.0 mm
02:55 AM 42.6°F5.9°C 41.0°F5.0°C 89% 1.4 mph W2.3 kmh W 3.1 mph5.0 kmh 29.45 in997.3 mb 0.00 in0.0 mm 0.00 in0.0 mm 0.00 in0.0 mm
03:00 AM 42.4°F5.8°C 41.0°F5.0°C 89% 1.3 mph WNW2.1 kmh WNW 2.7 mph4.3 kmh 29.45 in997.3 mb 0.00 in0.0 mm 0.00 in0.0 mm 0.00 in0.0 mm
03:05 AM 42.1°F5.6°C 39.2°F4.0°C 89% 0.5 mph NW0.8 kmh NW 2.7 mph4.3 kmh 29.45 in997.3 mb 0.00 in0.0 mm 0.00 in0.0 mm 0.00 in0.0 mm
03:10 AM 41.9°F5.5°C 39.2°F4.0°C 89% 0.3 mph WSW0.5 kmh WSW 1.1 mph1.8 kmh 29.45 in997.3 mb 0.00 in0.0 mm 0.00 in0.0 mm 0.00 in0.0 mm
03:15 AM 41.9°F5.5°C 39.2°F4.0°C 89% 1.2 mph W1.9 kmh W 4.5 mph7.2 kmh 29.45 in997.3 mb 0.00 in0.0 mm 0.00 in0.0 mm 0.00 in0.0 mm
03:20 AM 42.1°F5.6°C 39.2°F4.0°C 89% 2.7 mph WSW4.3 kmh WSW 4.5 mph7.2 kmh 29.45 in997.3 mb 0.00 in0.0 mm 0.00 in0.0 mm 0.00 in0.0 mm
03:25 AM 42.1°F5.6°C 39.2°F4.0°C 89% 3.1 mph WSW5.0 kmh WSW 3.8 mph6.1 kmh 29.45 in997.3 mb 0.00 in0.0 mm 0.00 in0.0 mm 0.00 in0.0 mm
03:30 AM 41.7°F5.4°C 39.2°F4.0°C 89% 3.3 mph WSW5.3 kmh WSW 6.3 mph10.1 kmh 29.45 in997.3 mb 0.00 in0.0 mm 0.00 in0.0 mm 0.00 in0.0 mm
03:35 AM 41.5°F5.3°C 39.2°F4.0°C 89% 3.7 mph WSW6.0 kmh WSW 6.3 mph10.1 kmh 29.45 in997.3 mb 0.00 in0.0 mm 0.00 in0.0 mm 0.00 in0.0 mm
03:40 AM 41.4°F5.2°C 39.2°F4.0°C 89% 3.2 mph WSW5.1 kmh WSW 5.4 mph8.7 kmh 29.45 in997.3 mb 0.00 in0.0 mm 0.00 in0.0 mm 0.00 in0.0 mm
03:45 AM 41.4°F5.2°C 39.2°F4.0°C 89% 2.8 mph SW4.5 kmh SW 6.0 mph9.7 kmh 29.45 in997.3 mb 0.00 in0.0 mm 0.00 in0.0 mm 0.00 in0.0 mm
03:50 AM 41.0°F5.0°C 39.2°F4.0°C 89% 2.4 mph WSW3.9 kmh WSW 6.0 mph9.7 kmh 29.45 in997.3 mb 0.00 in0.0 mm 0.00 in0.0 mm 0.00 in0.0 mm
03:55 AM 40.6°F4.8°C 37.4°F3.0°C 89% 2.4 mph WSW3.9 kmh WSW 4.3 mph6.9 kmh 29.45 in997.3 mb 0.00 in0.0 mm 0.00 in0.0 mm 0.00 in0.0 mm
04:00 AM 40.3°F4.6°C 37.4°F3.0°C 89% 1.9 mph WSW3.1 kmh WSW 3.4 mph5.5 kmh 29.45 in997.3 mb 0.00 in0.0 mm 0.00 in0.0 mm 0.00 in0.0 mm
04:05 AM 40.1°F4.5°C 37.4°F3.0°C 89% 0.9 mph WNW1.4 kmh WNW 1.6 mph2.6 kmh 29.45 in997.3 mb 0.00 in0.0 mm 0.00 in0.0 mm 0.00 in0.0 mm
04:10 AM 40.1°F4.5°C 37.4°F3.0°C 89% 1.2 mph WSW1.9 kmh WSW 2.5 mph4.0 kmh 29.45 in997.3 mb 0.00 in0.0 mm 0.00 in0.0 mm 0.00 in0.0 mm
04:15 AM 40.1°F4.5°C 37.4°F3.0°C 89% 1.8 mph SW2.9 kmh SW 2.5 mph4.0 kmh 29.45 in997.3 mb 0.00 in0.0 mm 0.00 in0.0 mm 0.00 in0.0 mm
04:20 AM 39.9°F4.4°C 37.4°F3.0°C 89% 1.4 mph SW2.3 kmh SW 2.5 mph4.0 kmh 29.45 in997.3 mb 0.00 in0.0 mm 0.00 in0.0 mm 0.00 in0.0 mm
04:25 AM 39.6°F4.2°C 37.4°F3.0°C 89% 1.1 mph SSW1.8 kmh SSW 2.5 mph4.0 kmh 29.45 in997.3 mb 0.00 in0.0 mm 0.00 in0.0 mm 0.00 in0.0 mm
04:30 AM 39.4°F4.1°C 37.4°F3.0°C 89% 0.9 mph SW1.4 kmh SW 2.5 mph4.0 kmh 29.45 in997.3 mb 0.00 in0.0 mm 0.00 in0.0 mm 0.00 in0.0 mm
04:35 AM 39.2°F4.0°C 35.6°F2.0°C 88% 0.8 mph SW1.3 kmh SW 1.6 mph2.6 kmh 29.45 in997.3 mb 0.00 in0.0 mm 0.00 in0.0 mm 0.00 in0.0 mm
04:40 AM 39.2°F4.0°C 35.6°F2.0°C 88% 1.9 mph SW3.1 kmh SW 3.8 mph6.1 kmh 29.45 in997.3 mb 0.00 in0.0 mm 0.00 in0.0 mm 0.00 in0.0 mm
04:45 AM 38.8°F3.8°C 35.6°F2.0°C 88% 1.9 mph SW3.1 kmh SW 3.8 mph6.1 kmh 29.45 in997.3 mb 0.00 in0.0 mm 0.00 in0.0 mm 0.00 in0.0 mm
04:50 AM 38.5°F3.6°C 35.6°F2.0°C 88% 1.2 mph W1.9 kmh W 1.6 mph2.6 kmh 29.45 in997.3 mb 0.00 in0.0 mm 0.00 in0.0 mm 0.00 in0.0 mm
04:55 AM 38.1°F3.4°C 35.6°F2.0°C 88% 1.0 mph NW1.6 kmh NW 1.6 mph2.6 kmh 29.45 in997.3 mb 0.00 in0.0 mm 0.00 in0.0 mm 0.00 in0.0 mm
05:00 AM 37.9°F3.3°C 35.6°F2.0°C 88% 1.1 mph W1.8 kmh W 2.9 mph4.7 kmh 29.45 in997.3 mb 0.00 in0.0 mm 0.00 in0.0 mm 0.00 in0.0 mm
05:05 AM 38.1°F3.4°C 35.6°F2.0°C 88% 2.0 mph WSW3.2 kmh WSW 3.8 mph6.1 kmh 29.45 in997.3 mb 0.00 in0.0 mm 0.00 in0.0 mm 0.00 in0.0 mm
05:10 AM 38.3°F3.5°C 35.6°F2.0°C 88% 2.4 mph WSW3.9 kmh WSW 3.8 mph6.1 kmh 29.45 in997.3 mb 0.00 in0.0 mm 0.00 in0.0 mm 0.00 in0.0 mm
05:15 AM 38.3°F3.5°C 35.6°F2.0°C 88% 2.3 mph WSW3.7 kmh WSW 3.6 mph5.8 kmh 29.45 in997.3 mb 0.00 in0.0 mm 0.00 in0.0 mm 0.00 in0.0 mm
05:20 AM 38.3°F3.5°C 35.6°F2.0°C 88% 1.8 mph WSW2.9 kmh WSW 3.1 mph5.0 kmh 29.45 in997.3 mb 0.00 in0.0 mm 0.00 in0.0 mm 0.00 in0.0 mm
05:25 AM 38.3°F3.5°C 35.6°F2.0°C 88% 0.6 mph SW1.0 kmh SW 1.6 mph2.6 kmh 29.45 in997.3 mb 0.00 in0.0 mm 0.00 in0.0 mm 0.00 in0.0 mm
05:30 AM 38.1°F3.4°C 35.6°F2.0°C 88% 0.2 mph SW0.3 kmh SW 1.3 mph2.1 kmh 29.45 in997.3 mb 0.00 in0.0 mm 0.00 in0.0 mm 0.00 in0.0 mm
05:35 AM 37.6°F3.1°C 33.8°F1.0°C 88% 0.1 mph SSW0.2 kmh SSW 1.1 mph1.8 kmh 29.45 in997.3 mb 0.00 in0.0 mm 0.00 in0.0 mm 0.00 in0.0 mm
05:40 AM 37.0°F2.8°C 33.8°F1.0°C 88% Calm Calm -- 29.45 in997.3 mb 0.00 in0.0 mm 0.00 in0.0 mm 0.00 in0.0 mm
05:45 AM 36.7°F2.6°C 33.8°F1.0°C 88% Calm Calm -- 29.45 in997.3 mb 0.00 in0.0 mm 0.00 in0.0 mm 0.00 in0.0 mm
05:50 AM 36.3°F2.4°C 33.8°F1.0°C 88% Calm Calm -- 29.47 in998.0 mb 0.00 in0.0 mm 0.00 in0.0 mm 0.00 in0.0 mm
05:55 AM 36.3°F2.4°C 33.8°F1.0°C 88% 0.1 mph W0.2 kmh W 1.1 mph1.8 kmh 29.47 in998.0 mb 0.00 in0.0 mm 0.00 in0.0 mm 0.00 in0.0 mm
06:00 AM 36.3°F2.4°C 33.8°F1.0°C 88% 0.1 mph W0.2 kmh W 1.1 mph1.8 kmh 29.47 in998.0 mb 0.00 in0.0 mm 0.00 in0.0 mm 0.00 in0.0 mm
06:05 AM 36.7°F2.6°C 33.8°F1.0°C 88% 0.3 mph SW0.5 kmh SW 1.3 mph2.1 kmh 29.45 in997.3 mb 0.00 in0.0 mm 0.00 in0.0 mm 0.00 in0.0 mm
06:10 AM 37.0°F2.8°C 33.8°F1.0°C 88% 0.3 mph SW0.5 kmh SW 1.3 mph2.1 kmh 29.45 in997.3 mb 0.00 in0.0 mm 0.00 in0.0 mm 0.00 in0.0 mm
06:15 AM 36.9°F2.7°C 33.8°F1.0°C 88% Calm Calm -- 29.45 in997.3 mb 0.00 in0.0 mm 0.00 in0.0 mm 0.00 in0.0 mm
06:20 AM 36.5°F2.5°C 33.8°F1.0°C 88% Calm Calm -- 29.47 in998.0 mb 0.00 in0.0 mm 0.00 in0.0 mm 0.00 in0.0 mm
06:25 AM 36.1°F2.3°C 33.8°F1.0°C 88% 0.1 mph S0.2 kmh S 0.9 mph1.4 kmh 29.47 in998.0 mb 0.00 in0.0 mm 0.00 in0.0 mm 0.00 in0.0 mm
06:30 AM 36.0°F2.2°C 33.8°F1.0°C 88% 0.3 mph S0.5 kmh S 1.3 mph2.1 kmh 29.47 in998.0 mb 0.00 in0.0 mm 0.00 in0.0 mm 0.00 in0.0 mm
06:35 AM 35.6°F2.0°C 33.8°F1.0°C 88% 0.3 mph S0.5 kmh S 1.3 mph2.1 kmh 29.47 in998.0 mb 0.00 in0.0 mm 0.00 in0.0 mm 0.00 in0.0 mm
06:40 AM 35.6°F2.0°C 33.8°F1.0°C 88% 0.1 mph SSW0.2 kmh SSW 0.9 mph1.4 kmh 29.47 in998.0 mb 0.00 in0.0 mm 0.00 in0.0 mm 0.00 in0.0 mm
06:45 AM 35.6°F2.0°C 33.8°F1.0°C 88% 0.1 mph SSW0.2 kmh SSW 0.9 mph1.4 kmh 29.47 in998.0 mb 0.00 in0.0 mm 0.00 in0.0 mm 0.00 in0.0 mm
06:50 AM 35.4°F1.9°C 32.0°F0.0°C 88% 0.6 mph SSW1.0 kmh SSW 2.2 mph3.5 kmh 29.47 in998.0 mb 0.00 in0.0 mm 0.00 in0.0 mm 0.00 in0.0 mm
06:55 AM 35.6°F2.0°C 33.8°F1.0°C 88% 0.7 mph SSW1.1 kmh SSW 2.2 mph3.5 kmh 29.47 in998.0 mb 0.00 in0.0 mm 0.00 in0.0 mm 0.00 in0.0 mm
07:00 AM 35.4°F1.9°C 32.0°F0.0°C 88% 0.3 mph SSW0.5 kmh SSW 1.1 mph1.8 kmh 29.47 in998.0 mb 0.00 in0.0 mm 0.00 in0.0 mm 0.00 in0.0 mm
07:05 AM 35.2°F1.8°C 32.0°F0.0°C 88% 0.1 mph SSW0.2 kmh SSW 1.1 mph1.8 kmh 29.45 in997.3 mb 0.00 in0.0 mm 0.00 in0.0 mm 0.00 in0.0 mm
07:10 AM 35.1°F1.7°C 32.0°F0.0°C 88% Calm Calm -- 29.45 in997.3 mb 0.00 in0.0 mm 0.00 in0.0 mm 0.00 in0.0 mm
07:15 AM 35.1°F1.7°C 32.0°F0.0°C 88% Calm Calm -- 29.45 in997.3 mb 0.00 in0.0 mm 0.00 in0.0 mm 0.00 in0.0 mm
07:20 AM 34.7°F1.5°C 32.0°F0.0°C 88% Calm Calm -- 29.47 in998.0 mb 0.00 in0.0 mm 0.00 in0.0 mm 0.00 in0.0 mm
07:25 AM 34.7°F1.5°C 32.0°F0.0°C 88% 0.4 mph WSW0.6 kmh WSW 1.3 mph2.1 kmh 29.47 in998.0 mb 0.00 in0.0 mm 0.00 in0.0 mm 0.00 in0.0 mm
07:30 AM 35.2°F1.8°C 32.0°F0.0°C 88% 1.2 mph SW1.9 kmh SW 2.7 mph4.3 kmh 29.47 in998.0 mb 0.00 in0.0 mm 0.00 in0.0 mm 0.00 in0.0 mm
07:35 AM 35.2°F1.8°C 32.0°F0.0°C 88% 1.2 mph SW1.9 kmh SW 2.7 mph4.3 kmh 29.47 in998.0 mb 0.00 in0.0 mm 0.00 in0.0 mm 0.00 in0.0 mm
07:40 AM 35.1°F1.7°C 32.0°F0.0°C 88% 0.6 mph SSW1.0 kmh SSW 2.7 mph4.3 kmh 29.47 in998.0 mb 0.00 in0.0 mm 0.00 in0.0 mm 0.00 in0.0 mm
07:45 AM 35.1°F1.7°C 32.0°F0.0°C 88% 0.4 mph SSW0.6 kmh SSW 2.7 mph4.3 kmh 29.47 in998.0 mb 0.00 in0.0 mm 0.00 in0.0 mm 0.00 in0.0 mm
07:50 AM 35.1°F1.7°C 32.0°F0.0°C 88% 0.4 mph SSW0.6 kmh SSW 1.3 mph2.1 kmh 29.47 in998.0 mb 0.00 in0.0 mm 0.00 in0.0 mm 0.00 in0.0 mm
07:55 AM 35.2°F1.8°C 32.0°F0.0°C 88% 0.6 mph S1.0 kmh S 1.3 mph2.1 kmh 29.47 in998.0 mb 0.00 in0.0 mm 0.00 in0.0 mm 0.00 in0.0 mm
08:00 AM 35.2°F1.8°C 32.0°F0.0°C 88% 0.7 mph S1.1 kmh S 1.3 mph2.1 kmh 29.47 in998.0 mb 0.00 in0.0 mm 0.00 in0.0 mm 0.00 in0.0 mm
08:05 AM 34.7°F1.5°C 32.0°F0.0°C 88% 0.3 mph S0.5 kmh S 1.3 mph2.1 kmh 29.47 in998.0 mb 0.00 in0.0 mm 0.00 in0.0 mm 0.00 in0.0 mm
08:10 AM 34.5°F1.4°C 32.0°F0.0°C 88% Calm Calm -- 29.47 in998.0 mb 0.00 in0.0 mm 0.00 in0.0 mm 0.00 in0.0 mm
08:15 AM 34.9°F1.6°C 32.0°F0.0°C 88% Calm Calm -- 29.47 in998.0 mb 0.00 in0.0 mm 0.00 in0.0 mm 0.00 in0.0 mm
08:20 AM 35.2°F1.8°C 32.0°F0.0°C 88% Calm Calm -- 29.50 in999.0 mb 0.00 in0.0 mm 0.00 in0.0 mm 0.00 in0.0 mm
08:25 AM 35.2°F1.8°C 32.0°F0.0°C 88% Calm Calm -- 29.50 in999.0 mb 0.00 in0.0 mm 0.00 in0.0 mm 0.00 in0.0 mm
08:30 AM 35.2°F1.8°C 32.0°F0.0°C 88% Calm Calm -- 29.50 in999.0 mb 0.00 in0.0 mm 0.00 in0.0 mm 0.00 in0.0 mm
08:35 AM 35.6°F2.0°C 33.8°F1.0°C 88% Calm Calm -- 29.50 in999.0 mb 0.00 in0.0 mm 0.00 in0.0 mm 0.00 in0.0 mm
08:40 AM 35.6°F2.0°C 33.8°F1.0°C 88% Calm Calm -- 29.50 in999.0 mb 0.00 in0.0 mm 0.00 in0.0 mm 0.00 in0.0 mm
08:45 AM 35.8°F2.1°C 33.8°F1.0°C 88% Calm Calm -- 29.50 in999.0 mb 0.00 in0.0 mm 0.00 in0.0 mm 0.00 in0.0 mm
08:50 AM 36.1°F2.3°C 33.8°F1.0°C 89% Calm Calm -- 29.50 in999.0 mb 0.00 in0.0 mm 0.00 in0.0 mm 0.00 in0.0 mm
08:55 AM 36.1°F2.3°C 33.8°F1.0°C 89% 0.1 mph ENE0.2 kmh ENE 1.1 mph1.8 kmh 29.50 in999.0 mb 0.00 in0.0 mm 0.00 in0.0 mm 0.00 in0.0 mm
09:00 AM 36.3°F2.4°C 33.8°F1.0°C 89% 0.2 mph ENE0.3 kmh ENE 1.1 mph1.8 kmh 29.50 in999.0 mb 0.00 in0.0 mm 0.00 in0.0 mm 0.00 in0.0 mm
09:05 AM 36.3°F2.4°C 33.8°F1.0°C 89% 0.1 mph ENE0.2 kmh ENE 0.9 mph1.4 kmh 29.50 in999.0 mb 0.00 in0.0 mm 0.00 in0.0 mm 0.00 in0.0 mm
09:10 AM 36.7°F2.6°C 33.8°F1.0°C 89% 0.1 mph S0.2 kmh S 1.1 mph1.8 kmh 29.50 in999.0 mb 0.00 in0.0 mm 0.00 in0.0 mm 0.00 in0.0 mm
09:15 AM 36.9°F2.7°C 33.8°F1.0°C 89% 0.5 mph SSW0.8 kmh SSW 2.0 mph3.2 kmh 29.50 in999.0 mb 0.00 in0.0 mm 0.00 in0.0 mm 0.00 in0.0 mm
09:20 AM 37.2°F2.9°C 35.6°F2.0°C 89% 0.7 mph SSW1.1 kmh SSW 2.0 mph3.2 kmh 29.50 in999.0 mb 0.00 in0.0 mm 0.00 in0.0 mm 0.00 in0.0 mm
09:25 AM 37.4°F3.0°C 35.6°F2.0°C 89% 0.9 mph SSW1.4 kmh SSW 2.7 mph4.3 kmh 29.50 in999.0 mb 0.00 in0.0 mm 0.00 in0.0 mm 0.00 in0.0 mm
09:30 AM 37.4°F3.0°C 35.6°F2.0°C 89% 1.0 mph SW1.6 kmh SW 2.7 mph4.3 kmh 29.50 in999.0 mb 0.00 in0.0 mm 0.00 in0.0 mm 0.00 in0.0 mm
09:35 AM 37.4°F3.0°C 35.6°F2.0°C 89% 0.9 mph SW1.4 kmh SW 2.7 mph4.3 kmh 29.50 in999.0 mb 0.00 in0.0 mm 0.00 in0.0 mm 0.00 in0.0 mm
09:40 AM 37.6°F3.1°C 35.6°F2.0°C 89% 0.2 mph SSW0.3 kmh SSW 1.3 mph2.1 kmh 29.50 in999.0 mb 0.00 in0.0 mm 0.00 in0.0 mm 0.00 in0.0 mm
09:45 AM 37.8°F3.2°C 35.6°F2.0°C 89% 0.2 mph SSW0.3 kmh SSW 1.3 mph2.1 kmh 29.50 in999.0 mb 0.00 in0.0 mm 0.00 in0.0 mm 0.00 in0.0 mm
09:50 AM 38.1°F3.4°C 35.6°F2.0°C 89% 0.6 mph SSW1.0 kmh SSW 1.3 mph2.1 kmh 29.50 in999.0 mb 0.00 in0.0 mm 0.00 in0.0 mm 0.00 in0.0 mm
09:55 AM 38.1°F3.4°C 35.6°F2.0°C 89% 0.8 mph SSW1.3 kmh SSW 1.6 mph2.6 kmh 29.50 in999.0 mb 0.00 in0.0 mm 0.00 in0.0 mm 0.00 in0.0 mm
10:00 AM 38.1°F3.4°C 35.6°F2.0°C 89% 0.6 mph S1.0 kmh S 2.0 mph3.2 kmh 29.50 in999.0 mb 0.00 in0.0 mm 0.00 in0.0 mm 0.00 in0.0 mm
10:05 AM 38.3°F3.5°C 35.6°F2.0°C 89% 1.6 mph SSW2.6 kmh SSW 7.4 mph11.9 kmh 29.50 in999.0 mb 0.00 in0.0 mm 0.00 in0.0 mm 0.00 in0.0 mm
10:10 AM 38.7°F3.7°C 35.6°F2.0°C 89% 2.6 mph SSW4.2 kmh SSW 7.4 mph11.9 kmh 29.50 in999.0 mb 0.00 in0.0 mm 0.00 in0.0 mm 0.00 in0.0 mm
10:15 AM 38.7°F3.7°C 35.6°F2.0°C 89% 2.3 mph SSW3.7 kmh SSW 5.8 mph9.3 kmh 29.50 in999.0 mb 0.00 in0.0 mm 0.00 in0.0 mm 0.00 in0.0 mm
10:20 AM 39.0°F3.9°C 37.4°F3.0°C 89% 2.7 mph SSW4.3 kmh SSW 6.0 mph9.7 kmh 29.50 in999.0 mb 0.00 in0.0 mm 0.00 in0.0 mm 0.00 in0.0 mm
10:25 AM 39.2°F4.0°C 37.4°F3.0°C 89% 2.7 mph SSW4.3 kmh SSW 6.0 mph9.7 kmh 29.50 in999.0 mb 0.00 in0.0 mm 0.00 in0.0 mm 0.00 in0.0 mm
10:30 AM 39.2°F4.0°C 37.4°F3.0°C 89% 1.7 mph SW2.7 kmh SW 4.0 mph6.4 kmh 29.50 in999.0 mb 0.00 in0.0 mm 0.00 in0.0 mm 0.00 in0.0 mm
10:35 AM 39.4°F4.1°C 37.4°F3.0°C 89% 1.5 mph SW2.4 kmh SW 3.6 mph5.8 kmh 29.50 in999.0 mb 0.00 in0.0 mm 0.00 in0.0 mm 0.00 in0.0 mm
10:40 AM 39.6°F4.2°C 37.4°F3.0°C 89% 1.5 mph SW2.4 kmh SW 2.9 mph4.7 kmh 29.50 in999.0 mb 0.00 in0.0 mm 0.00 in0.0 mm 0.00 in0.0 mm
10:45 AM 39.7°F4.3°C 37.4°F3.0°C 89% 1.5 mph SW2.4 kmh SW 2.9 mph4.7 kmh 29.50 in999.0 mb 0.00 in0.0 mm 0.00 in0.0 mm 0.00 in0.0 mm
10:50 AM 39.9°F4.4°C 37.4°F3.0°C 89% 1.1 mph SW1.8 kmh SW 1.6 mph2.6 kmh 29.50 in999.0 mb 0.00 in0.0 mm 0.00 in0.0 mm 0.00 in0.0 mm
10:55 AM 40.1°F4.5°C 37.4°F3.0°C 89% 0.8 mph SW1.3 kmh SW 2.0 mph3.2 kmh 29.50 in999.0 mb 0.00 in0.0 mm 0.00 in0.0 mm 0.00 in0.0 mm
11:00 AM 40.5°F4.7°C 37.4°F3.0°C 89% 0.4 mph SW0.6 kmh SW 2.0 mph3.2 kmh 29.50 in999.0 mb 0.00 in0.0 mm 0.00 in0.0 mm 0.00 in0.0 mm
11:05 AM 41.0°F5.0°C 39.2°F4.0°C 89% 0.7 mph WSW1.1 kmh WSW 2.5 mph4.0 kmh 29.24 in990.2 mb 0.00 in0.0 mm 0.00 in0.0 mm 0.00 in0.0 mm
11:10 AM 41.4°F5.2°C 39.2°F4.0°C 89% 1.3 mph WSW2.1 kmh WSW 3.6 mph5.8 kmh 29.24 in990.2 mb 0.00 in0.0 mm 0.00 in0.0 mm 0.00 in0.0 mm
11:15 AM 41.9°F5.5°C 39.2°F4.0°C 89% 1.6 mph WSW2.6 kmh WSW 3.6 mph5.8 kmh 29.24 in990.2 mb 0.00 in0.0 mm 0.00 in0.0 mm 0.00 in0.0 mm
11:20 AM 42.6°F5.9°C 41.0°F5.0°C 89% 2.0 mph SW3.2 kmh SW 3.4 mph5.5 kmh 29.50 in999.0 mb 0.00 in0.0 mm 0.00 in0.0 mm 0.00 in0.0 mm
11:25 AM 43.2°F6.2°C 41.0°F5.0°C 89% 1.8 mph SW2.9 kmh SW 3.6 mph5.8 kmh 29.50 in999.0 mb 0.00 in0.0 mm 0.00 in0.0 mm 0.00 in0.0 mm
11:30 AM 43.7°F6.5°C 41.0°F5.0°C 88% 1.6 mph SW2.6 kmh SW 3.6 mph5.8 kmh 29.50 in999.0 mb 0.00 in0.0 mm 0.00 in0.0 mm 0.00 in0.0 mm
11:35 AM 43.9°F6.6°C 41.0°F5.0°C 88% 1.9 mph WSW3.1 kmh WSW 2.9 mph4.7 kmh 29.50 in999.0 mb 0.00 in0.0 mm 0.00 in0.0 mm 0.00 in0.0 mm
11:40 AM 44.2°F6.8°C 41.0°F5.0°C 87% 2.7 mph SW4.3 kmh SW 6.0 mph9.7 kmh 29.50 in999.0 mb 0.00 in0.0 mm 0.00 in0.0 mm 0.00 in0.0 mm
11:45 AM 45.0°F7.2°C 42.8°F6.0°C 87% 3.7 mph SW6.0 kmh SW 6.3 mph10.1 kmh 29.50 in999.0 mb 0.00 in0.0 mm 0.00 in0.0 mm 0.00 in0.0 mm
11:50 AM 45.1°F7.3°C 41.0°F5.0°C 86% 3.5 mph SSW5.6 kmh SSW 6.3 mph10.1 kmh 29.50 in999.0 mb 0.00 in0.0 mm 0.00 in0.0 mm 0.00 in0.0 mm
11:55 AM 44.4°F6.9°C 41.0°F5.0°C 85% 3.6 mph SW5.8 kmh SW 7.4 mph11.9 kmh 29.50 in999.0 mb 0.00 in0.0 mm 0.00 in0.0 mm 0.00 in0.0 mm
12:00 PM 44.2°F6.8°C 41.0°F5.0°C 85% 4.1 mph SW6.6 kmh SW 7.4 mph11.9 kmh 29.50 in999.0 mb 0.00 in0.0 mm 0.00 in0.0 mm 0.00 in0.0 mm
12:05 PM 44.1°F6.7°C 41.0°F5.0°C 85% 3.0 mph SSW4.8 kmh SSW 5.8 mph9.3 kmh 29.50 in999.0 mb 0.00 in0.0 mm 0.00 in0.0 mm 0.00 in0.0 mm
12:10 PM 44.1°F6.7°C 41.0°F5.0°C 85% 2.1 mph SSW3.4 kmh SSW 4.9 mph7.9 kmh 29.50 in999.0 mb 0.00 in0.0 mm 0.00 in0.0 mm 0.00 in0.0 mm
12:15 PM 44.1°F6.7°C 41.0°F5.0°C 85% 2.3 mph SSW3.7 kmh SSW 6.0 mph9.7 kmh 29.50 in999.0 mb 0.00 in0.0 mm 0.00 in0.0 mm 0.00 in0.0 mm
12:20 PM 44.4°F6.9°C 41.0°F5.0°C 85% 2.4 mph SW3.9 kmh SW 6.0 mph9.7 kmh 29.47 in998.0 mb 0.00 in0.0 mm 0.00 in0.0 mm 0.00 in0.0 mm
12:25 PM 44.6°F7.0°C 41.0°F5.0°C 85% 2.4 mph SW3.9 kmh SW 6.0 mph9.7 kmh 29.47 in998.0 mb 0.00 in0.0 mm 0.00 in0.0 mm 0.00 in0.0 mm
12:30 PM 44.8°F7.1°C 41.0°F5.0°C 84% 3.5 mph SSW5.6 kmh SSW 8.1 mph13.0 kmh 29.47 in998.0 mb 0.00 in0.0 mm 0.00 in0.0 mm 0.00 in0.0 mm
12:35 PM 44.8°F7.1°C 41.0°F5.0°C 84% 4.0 mph SSW6.4 kmh SSW 8.1 mph13.0 kmh 29.50 in999.0 mb 0.00 in0.0 mm 0.00 in0.0 mm 0.00 in0.0 mm
12:40 PM 45.0°F7.2°C 41.0°F5.0°C 84% 3.6 mph SSW5.8 kmh SSW 7.6 mph12.2 kmh 29.50 in999.0 mb 0.00 in0.0 mm 0.00 in0.0 mm 0.00 in0.0 mm
12:45 PM 45.3°F7.4°C 41.0°F5.0°C 84% 3.9 mph SSW6.3 kmh SSW 7.6 mph12.2 kmh 29.50 in999.0 mb 0.00 in0.0 mm 0.00 in0.0 mm 0.00 in0.0 mm
12:50 PM 45.1°F7.3°C 41.0°F5.0°C 84% 3.6 mph SSW5.8 kmh SSW 7.2 mph11.6 kmh 29.50 in999.0 mb 0.00 in0.0 mm 0.00 in0.0 mm 0.00 in0.0 mm
12:55 PM 45.0°F7.2°C 41.0°F5.0°C 83% 2.9 mph SSW4.7 kmh SSW 6.0 mph9.7 kmh 29.50 in999.0 mb 0.00 in0.0 mm 0.00 in0.0 mm 0.00 in0.0 mm
01:00 PM 44.8°F7.1°C 39.2°F4.0°C 83% 2.8 mph SW4.5 kmh SW 4.9 mph7.9 kmh 29.50 in999.0 mb 0.00 in0.0 mm 0.00 in0.0 mm 0.00 in0.0 mm
01:05 PM 44.8°F7.1°C 39.2°F4.0°C 83% 2.9 mph SW4.7 kmh SW 4.3 mph6.9 kmh 29.47 in998.0 mb 0.00 in0.0 mm 0.00 in0.0 mm 0.00 in0.0 mm
01:10 PM 44.6°F7.0°C 39.2°F4.0°C 83% 3.1 mph SSW5.0 kmh SSW 5.4 mph8.7 kmh 29.47 in998.0 mb 0.00 in0.0 mm 0.00 in0.0 mm 0.00 in0.0 mm
01:15 PM 44.6°F7.0°C 39.2°F4.0°C 83% 3.1 mph SSW5.0 kmh SSW 5.4 mph8.7 kmh 29.47 in998.0 mb 0.00 in0.0 mm 0.00 in0.0 mm 0.00 in0.0 mm
01:20 PM 44.6°F7.0°C 39.2°F4.0°C 83% 2.2 mph S3.5 kmh S 3.1 mph5.0 kmh 29.47 in998.0 mb 0.00 in0.0 mm 0.00 in0.0 mm 0.00 in0.0 mm
01:25 PM 44.6°F7.0°C 41.0°F5.0°C 84% 2.0 mph S3.2 kmh S 3.1 mph5.0 kmh 29.47 in998.0 mb 0.00 in0.0 mm 0.00 in0.0 mm 0.00 in0.0 mm
01:30 PM 44.6°F7.0°C 41.0°F5.0°C 84% 1.2 mph S1.9 kmh S 2.9 mph4.7 kmh 29.47 in998.0 mb 0.00 in0.0 mm 0.00 in0.0 mm 0.00 in0.0 mm
01:35 PM 44.6°F7.0°C 41.0°F5.0°C 84% 0.8 mph SW1.3 kmh SW 3.1 mph5.0 kmh 29.47 in998.0 mb 0.00 in0.0 mm 0.00 in0.0 mm 0.00 in0.0 mm
01:40 PM 44.6°F7.0°C 41.0°F5.0°C 84% 0.8 mph SSW1.3 kmh SSW 3.1 mph5.0 kmh 29.47 in998.0 mb 0.00 in0.0 mm 0.00 in0.0 mm 0.00 in0.0 mm
01:45 PM 44.6°F7.0°C 41.0°F5.0°C 84% 0.9 mph S1.4 kmh S 3.1 mph5.0 kmh 29.47 in998.0 mb 0.00 in0.0 mm 0.00 in0.0 mm 0.00 in0.0 mm
01:50 PM 44.6°F7.0°C 41.0°F5.0°C 84% 0.7 mph S1.1 kmh S 3.1 mph5.0 kmh 29.45 in997.3 mb 0.00 in0.0 mm 0.00 in0.0 mm 0.00 in0.0 mm
01:55 PM 44.8°F7.1°C 41.0°F5.0°C 84% 0.3 mph S0.5 kmh S 1.1 mph1.8 kmh 29.45 in997.3 mb 0.00 in0.0 mm 0.00 in0.0 mm 0.00 in0.0 mm
02:00 PM 44.6°F7.0°C 41.0°F5.0°C 84% 0.7 mph S1.1 kmh S 1.3 mph2.1 kmh 29.45 in997.3 mb 0.00 in0.0 mm 0.00 in0.0 mm 0.00 in0.0 mm
02:05 PM 44.6°F7.0°C 41.0°F5.0°C 84% 0.7 mph SSE1.1 kmh SSE 1.6 mph2.6 kmh 29.45 in997.3 mb 0.00 in0.0 mm 0.00 in0.0 mm 0.00 in0.0 mm
02:10 PM 44.8°F7.1°C 41.0°F5.0°C 84% 0.5 mph SE0.8 kmh SE 1.6 mph2.6 kmh 29.45 in997.3 mb 0.00 in0.0 mm 0.00 in0.0 mm 0.00 in0.0 mm
02:15 PM 44.8°F7.1°C 41.0°F5.0°C 84% 0.5 mph SE0.8 kmh SE 1.6 mph2.6 kmh 29.45 in997.3 mb 0.00 in0.0 mm 0.00 in0.0 mm 0.00 in0.0 mm
02:20 PM 45.0°F7.2°C 41.0°F5.0°C 84% 0.6 mph ESE1.0 kmh ESE 1.6 mph2.6 kmh 29.45 in997.3 mb 0.00 in0.0 mm 0.00 in0.0 mm 0.00 in0.0 mm
02:25 PM 45.1°F7.3°C 41.0°F5.0°C 84% 0.4 mph E0.6 kmh E 1.1 mph1.8 kmh 29.45 in997.3 mb 0.00 in0.0 mm 0.00 in0.0 mm 0.00 in0.0 mm
02:30 PM 45.1°F7.3°C 41.0°F5.0°C 84% 0.6 mph SE1.0 kmh SE 2.2 mph3.5 kmh 29.45 in997.3 mb 0.00 in0.0 mm 0.00 in0.0 mm 0.00 in0.0 mm
02:35 PM 45.3°F7.4°C 41.0°F5.0°C 84% 0.8 mph SSE1.3 kmh SSE 2.2 mph3.5 kmh 29.45 in997.3 mb 0.00 in0.0 mm 0.00 in0.0 mm 0.00 in0.0 mm
02:40 PM 45.3°F7.4°C 41.0°F5.0°C 83% 1.1 mph S1.8 kmh S 4.3 mph6.9 kmh 29.45 in997.3 mb 0.00 in0.0 mm 0.00 in0.0 mm 0.00 in0.0 mm
02:45 PM 45.3°F7.4°C 41.0°F5.0°C 83% 1.9 mph S3.1 kmh S 4.3 mph6.9 kmh 29.45 in997.3 mb 0.00 in0.0 mm 0.00 in0.0 mm 0.00 in0.0 mm
02:50 PM 45.5°F7.5°C 41.0°F5.0°C 83% 2.5 mph S4.0 kmh S 4.0 mph6.4 kmh 29.41 in995.9 mb 0.00 in0.0 mm 0.00 in0.0 mm 0.00 in0.0 mm
02:55 PM 45.5°F7.5°C 41.0°F5.0°C 83% 2.7 mph S4.3 kmh S 4.0 mph6.4 kmh 29.41 in995.9 mb 0.00 in0.0 mm 0.00 in0.0 mm 0.00 in0.0 mm
03:00 PM 45.5°F7.5°C 41.0°F5.0°C 83% 2.8 mph S4.5 kmh S 7.2 mph11.6 kmh 29.41 in995.9 mb 0.00 in0.0 mm 0.00 in0.0 mm 0.00 in0.0 mm
03:05 PM 45.5°F7.5°C 41.0°F5.0°C 83% 3.6 mph S5.8 kmh S 7.2 mph11.6 kmh 29.41 in995.9 mb 0.00 in0.0 mm 0.00 in0.0 mm 0.00 in0.0 mm
03:10 PM 45.5°F7.5°C 41.0°F5.0°C 83% 3.2 mph SSW5.1 kmh SSW 6.3 mph10.1 kmh 29.41 in995.9 mb 0.00 in0.0 mm 0.00 in0.0 mm 0.00 in0.0 mm
03:15 PM 45.5°F7.5°C 41.0°F5.0°C 83% 2.0 mph S3.2 kmh S 6.3 mph10.1 kmh 29.41 in995.9 mb 0.00 in0.0 mm 0.00 in0.0 mm 0.00 in0.0 mm
03:20 PM 45.3°F7.4°C 41.0°F5.0°C 83% 1.6 mph S2.6 kmh S 3.4 mph5.5 kmh 29.45 in997.3 mb 0.00 in0.0 mm 0.00 in0.0 mm 0.00 in0.0 mm
03:25 PM 45.3°F7.4°C 41.0°F5.0°C 83% 2.4 mph S3.9 kmh S 3.8 mph6.1 kmh 29.45 in997.3 mb 0.00 in0.0 mm 0.00 in0.0 mm 0.00 in0.0 mm
03:30 PM 45.1°F7.3°C 41.0°F5.0°C 83% 2.9 mph SSW4.7 kmh SSW 3.8 mph6.1 kmh 29.45 in997.3 mb 0.00 in0.0 mm 0.00 in0.0 mm 0.00 in0.0 mm
03:35 PM 45.1°F7.3°C 41.0°F5.0°C 83% 3.3 mph SSW5.3 kmh SSW 7.2 mph11.6 kmh 29.45 in997.3 mb 0.00 in0.0 mm 0.00 in0.0 mm 0.00 in0.0 mm
03:40 PM 45.0°F7.2°C 41.0°F5.0°C 83% 2.8 mph SSW4.5 kmh SSW 7.2 mph11.6 kmh 29.45 in997.3 mb 0.00 in0.0 mm 0.00 in0.0 mm 0.00 in0.0 mm
03:45 PM 44.8°F7.1°C 39.2°F4.0°C 82% 2.0 mph S3.2 kmh S 3.1 mph5.0 kmh 29.45 in997.3 mb 0.00 in0.0 mm 0.00 in0.0 mm 0.00 in0.0 mm
03:50 PM 44.6°F7.0°C 39.2°F4.0°C 82% 1.8 mph S2.9 kmh S 3.4 mph5.5 kmh 29.39 in995.3 mb 0.00 in0.0 mm 0.00 in0.0 mm 0.00 in0.0 mm
03:55 PM 44.4°F6.9°C 39.2°F4.0°C 83% 2.6 mph S4.2 kmh S 5.4 mph8.7 kmh 29.39 in995.3 mb 0.00 in0.0 mm 0.00 in0.0 mm 0.00 in0.0 mm
04:00 PM 44.4°F6.9°C 39.2°F4.0°C 83% 2.8 mph S4.5 kmh S 6.3 mph10.1 kmh 29.39 in995.3 mb 0.00 in0.0 mm 0.00 in0.0 mm 0.00 in0.0 mm
04:05 PM 44.2°F6.8°C 39.2°F4.0°C 83% 2.8 mph S4.5 kmh S 6.3 mph10.1 kmh 29.41 in995.9 mb 0.00 in0.0 mm 0.00 in0.0 mm 0.00 in0.0 mm
04:10 PM 44.1°F6.7°C 39.2°F4.0°C 83% 1.2 mph S1.9 kmh S 3.1 mph5.0 kmh 29.41 in995.9 mb 0.00 in0.0 mm 0.00 in0.0 mm 0.00 in0.0 mm
04:15 PM 43.9°F6.6°C 39.2°F4.0°C 83% 0.4 mph SSE0.6 kmh SSE 2.2 mph3.5 kmh 29.41 in995.9 mb 0.00 in0.0 mm 0.00 in0.0 mm 0.00 in0.0 mm
04:20 PM 43.9°F6.6°C 39.2°F4.0°C 83% 1.4 mph SSE2.3 kmh SSE 4.0 mph6.4 kmh 29.41 in995.9 mb 0.00 in0.0 mm 0.00 in0.0 mm 0.00 in0.0 mm
04:25 PM 43.7°F6.5°C 39.2°F4.0°C 83% 1.9 mph SSE3.1 kmh SSE 4.0 mph6.4 kmh 29.41 in995.9 mb 0.00 in0.0 mm 0.00 in0.0 mm 0.00 in0.0 mm
04:30 PM 43.7°F6.5°C 39.2°F4.0°C 83% 1.9 mph S3.1 kmh S 4.0 mph6.4 kmh 29.41 in995.9 mb 0.00 in0.0 mm 0.00 in0.0 mm 0.00 in0.0 mm
04:35 PM 43.5°F6.4°C 39.2°F4.0°C 83% 2.7 mph S4.3 kmh S 4.9 mph7.9 kmh 29.41 in995.9 mb 0.00 in0.0 mm 0.00 in0.0 mm 0.00 in0.0 mm
04:40 PM 43.3°F6.3°C 39.2°F4.0°C 83% 2.7 mph S4.3 kmh S 4.9 mph7.9 kmh 29.41 in995.9 mb 0.00 in0.0 mm 0.00 in0.0 mm 0.00 in0.0 mm
04:45 PM 43.2°F6.2°C 39.2°F4.0°C 83% 3.2 mph S5.1 kmh S 5.8 mph9.3 kmh 29.41 in995.9 mb 0.00 in0.0 mm 0.00 in0.0 mm 0.00 in0.0 mm
04:50 PM 43.0°F6.1°C 37.4°F3.0°C 83% 3.4 mph S5.5 kmh S 5.8 mph9.3 kmh 29.39 in995.3 mb 0.00 in0.0 mm 0.00 in0.0 mm 0.00 in0.0 mm
04:55 PM 42.8°F6.0°C 39.2°F4.0°C 84% 2.1 mph S3.4 kmh S 4.9 mph7.9 kmh 29.39 in995.3 mb 0.00 in0.0 mm 0.00 in0.0 mm 0.00 in0.0 mm
05:00 PM 42.6°F5.9°C 39.2°F4.0°C 84% 1.1 mph S1.8 kmh S 2.9 mph4.7 kmh 29.39 in995.3 mb 0.00 in0.0 mm 0.00 in0.0 mm 0.00 in0.0 mm
05:05 PM 42.1°F5.6°C 37.4°F3.0°C 84% 0.6 mph SE1.0 kmh SE 2.2 mph3.5 kmh 29.41 in995.9 mb 0.00 in0.0 mm 0.00 in0.0 mm 0.00 in0.0 mm
05:10 PM 41.9°F5.5°C 37.4°F3.0°C 84% 0.6 mph SE1.0 kmh SE 2.2 mph3.5 kmh 29.41 in995.9 mb 0.00 in0.0 mm 0.00 in0.0 mm 0.00 in0.0 mm
05:15 PM 41.7°F5.4°C 37.4°F3.0°C 84% 0.8 mph SE1.3 kmh SE 2.2 mph3.5 kmh 29.41 in995.9 mb 0.00 in0.0 mm 0.00 in0.0 mm 0.00 in0.0 mm
05:20 PM 41.9°F5.5°C 37.4°F3.0°C 84% 1.1 mph SE1.8 kmh SE 2.2 mph3.5 kmh 29.41 in995.9 mb 0.00 in0.0 mm 0.00 in0.0 mm 0.00 in0.0 mm
05:25 PM 41.7°F5.4°C 37.4°F3.0°C 84% 1.0 mph S1.6 kmh S 2.2 mph3.5 kmh 29.41 in995.9 mb 0.00 in0.0 mm 0.00 in0.0 mm 0.00 in0.0 mm
05:30 PM 41.7°F5.4°C 37.4°F3.0°C 84% 1.5 mph SSE2.4 kmh SSE 3.6 mph5.8 kmh 29.41 in995.9 mb 0.00 in0.0 mm 0.00 in0.0 mm 0.00 in0.0 mm
05:35 PM 41.5°F5.3°C 37.4°F3.0°C 85% 2.2 mph SE3.5 kmh SE 4.7 mph7.6 kmh 29.39 in995.3 mb 0.00 in0.0 mm 0.00 in0.0 mm 0.00 in0.0 mm
05:40 PM 41.4°F5.2°C 37.4°F3.0°C 85% 2.2 mph SSE3.5 kmh SSE 4.7 mph7.6 kmh 29.39 in995.3 mb 0.00 in0.0 mm 0.00 in0.0 mm 0.00 in0.0 mm
05:45 PM 41.2°F5.1°C 37.4°F3.0°C 85% 1.6 mph SSE2.6 kmh SSE 5.6 mph9.0 kmh 29.39 in995.3 mb 0.00 in0.0 mm 0.00 in0.0 mm 0.00 in0.0 mm
05:50 PM 41.0°F5.0°C 37.4°F3.0°C 85% 0.7 mph SE1.1 kmh SE 5.6 mph9.0 kmh 29.41 in995.9 mb 0.00 in0.0 mm 0.00 in0.0 mm 0.00 in0.0 mm
05:55 PM 40.6°F4.8°C 37.4°F3.0°C 85% 0.1 mph SE0.2 kmh SE 0.9 mph1.4 kmh 29.41 in995.9 mb 0.00 in0.0 mm 0.00 in0.0 mm 0.00 in0.0 mm
06:00 PM 40.5°F4.7°C 37.4°F3.0°C 85% 0.2 mph S0.3 kmh S 1.6 mph2.6 kmh 29.41 in995.9 mb 0.00 in0.0 mm 0.00 in0.0 mm 0.00 in0.0 mm
06:05 PM 40.5°F4.7°C 37.4°F3.0°C 85% 1.5 mph S2.4 kmh S 2.5 mph4.0 kmh 29.39 in995.3 mb 0.00 in0.0 mm 0.00 in0.0 mm 0.00 in0.0 mm
06:10 PM 40.6°F4.8°C 37.4°F3.0°C 85% 2.7 mph S4.3 kmh S 4.7 mph7.6 kmh 29.39 in995.3 mb 0.00 in0.0 mm 0.00 in0.0 mm 0.00 in0.0 mm
06:15 PM 40.8°F4.9°C 37.4°F3.0°C 85% 2.7 mph S4.3 kmh S 4.7 mph7.6 kmh 29.39 in995.3 mb 0.00 in0.0 mm 0.00 in0.0 mm 0.00 in0.0 mm
06:20 PM 40.6°F4.8°C 37.4°F3.0°C 85% 1.3 mph S2.1 kmh S 2.9 mph4.7 kmh 29.39 in995.3 mb 0.00 in0.0 mm 0.00 in0.0 mm 0.00 in0.0 mm
06:25 PM 40.1°F4.5°C 37.4°F3.0°C 85% 0.8 mph SE1.3 kmh SE 2.9 mph4.7 kmh 29.39 in995.3 mb 0.00 in0.0 mm 0.00 in0.0 mm 0.00 in0.0 mm
06:30 PM 39.7°F4.3°C 35.6°F2.0°C 85% 0.6 mph ESE1.0 kmh ESE 2.9 mph4.7 kmh 29.39 in995.3 mb 0.00 in0.0 mm 0.00 in0.0 mm 0.00 in0.0 mm
06:35 PM 39.4°F4.1°C 35.6°F2.0°C 85% 0.2 mph SE0.3 kmh SE 1.3 mph2.1 kmh 29.36 in994.2 mb 0.00 in0.0 mm 0.00 in0.0 mm 0.00 in0.0 mm
06:40 PM 39.6°F4.2°C 35.6°F2.0°C 85% Calm Calm -- 29.36 in994.2 mb 0.00 in0.0 mm 0.00 in0.0 mm 0.00 in0.0 mm
06:45 PM 39.4°F4.1°C 35.6°F2.0°C 85% 0.1 mph SSE0.2 kmh SSE 0.9 mph1.4 kmh 29.36 in994.2 mb 0.00 in0.0 mm 0.00 in0.0 mm 0.00 in0.0 mm
06:50 PM 39.2°F4.0°C 35.6°F2.0°C 85% 0.4 mph SSE0.6 kmh SSE 1.3 mph2.1 kmh 29.36 in994.2 mb 0.00 in0.0 mm 0.00 in0.0 mm 0.00 in0.0 mm
06:55 PM 39.2°F4.0°C 35.6°F2.0°C 85% 0.4 mph SE0.6 kmh SE 1.3 mph2.1 kmh 29.36 in994.2 mb 0.00 in0.0 mm 0.00 in0.0 mm 0.00 in0.0 mm
07:00 PM 39.0°F3.9°C 35.6°F2.0°C 85% 0.4 mph SSE0.6 kmh SSE 2.2 mph3.5 kmh 29.36 in994.2 mb 0.00 in0.0 mm 0.00 in0.0 mm 0.00 in0.0 mm
07:05 PM 38.8°F3.8°C 35.6°F2.0°C 85% 1.2 mph S1.9 kmh S 2.2 mph3.5 kmh 29.36 in994.2 mb 0.00 in0.0 mm 0.00 in0.0 mm 0.00 in0.0 mm
07:10 PM 39.4°F4.1°C 35.6°F2.0°C 85% 2.6 mph S4.2 kmh S 8.1 mph13.0 kmh 29.36 in994.2 mb 0.00 in0.0 mm 0.00 in0.0 mm 0.00 in0.0 mm
07:15 PM 39.4°F4.1°C 35.6°F2.0°C 85% 3.3 mph S5.3 kmh S 8.1 mph13.0 kmh 29.36 in994.2 mb 0.00 in0.0 mm 0.00 in0.0 mm 0.00 in0.0 mm
07:20 PM 39.4°F4.1°C 35.6°F2.0°C 85% 3.8 mph S6.1 kmh S 7.6 mph12.2 kmh 29.36 in994.2 mb 0.00 in0.0 mm 0.00 in0.0 mm 0.00 in0.0 mm
07:25 PM 39.4°F4.1°C 35.6°F2.0°C 85% 2.7 mph S4.3 kmh S 7.6 mph12.2 kmh 29.36 in994.2 mb 0.00 in0.0 mm 0.00 in0.0 mm 0.00 in0.0 mm
07:30 PM 39.4°F4.1°C 35.6°F2.0°C 85% 1.8 mph S2.9 kmh S 4.0 mph6.4 kmh 29.36 in994.2 mb 0.00 in0.0 mm 0.00 in0.0 mm 0.00 in0.0 mm
07:35 PM 39.4°F4.1°C 35.6°F2.0°C 85% 2.4 mph S3.9 kmh S 4.3 mph6.9 kmh 29.33 in993.2 mb 0.00 in0.0 mm 0.00 in0.0 mm 0.00 in0.0 mm
07:40 PM 39.6°F4.2°C 35.6°F2.0°C 86% 2.3 mph S3.7 kmh S 4.3 mph6.9 kmh 29.33 in993.2 mb 0.00 in0.0 mm 0.00 in0.0 mm 0.00 in0.0 mm
07:45 PM 39.6°F4.2°C 35.6°F2.0°C 86% 1.6 mph S2.6 kmh S 3.8 mph6.1 kmh 29.33 in993.2 mb 0.00 in0.0 mm 0.00 in0.0 mm 0.00 in0.0 mm
07:50 PM 39.0°F3.9°C 35.6°F2.0°C 86% 1.0 mph E1.6 kmh E 3.4 mph5.5 kmh 29.33 in993.2 mb 0.00 in0.0 mm 0.00 in0.0 mm 0.00 in0.0 mm
07:55 PM 38.7°F3.7°C 35.6°F2.0°C 85% 0.9 mph ENE1.4 kmh ENE 1.6 mph2.6 kmh 29.33 in993.2 mb 0.00 in0.0 mm 0.00 in0.0 mm 0.00 in0.0 mm
08:00 PM 38.3°F3.5°C 35.6°F2.0°C 85% 0.7 mph NE1.1 kmh NE 1.6 mph2.6 kmh 29.33 in993.2 mb 0.00 in0.0 mm 0.00 in0.0 mm 0.00 in0.0 mm
08:05 PM 37.8°F3.2°C 33.8°F1.0°C 85% 0.7 mph NE1.1 kmh NE 1.6 mph2.6 kmh 29.33 in993.2 mb 0.00 in0.0 mm 0.00 in0.0 mm 0.00 in0.0 mm
08:10 PM 37.6°F3.1°C 33.8°F1.0°C 85% 1.1 mph NE1.8 kmh NE 1.6 mph2.6 kmh 29.33 in993.2 mb 0.00 in0.0 mm 0.00 in0.0 mm 0.00 in0.0 mm
08:15 PM 37.6°F3.1°C 33.8°F1.0°C 85% 1.3 mph NE2.1 kmh NE 1.6 mph2.6 kmh 29.33 in993.2 mb 0.00 in0.0 mm 0.00 in0.0 mm 0.00 in0.0 mm
08:20 PM 37.4°F3.0°C 33.8°F1.0°C 85% 1.2 mph NE1.9 kmh NE 1.6 mph2.6 kmh 29.33 in993.2 mb 0.00 in0.0 mm 0.00 in0.0 mm 0.00 in0.0 mm
08:25 PM 37.2°F2.9°C 33.8°F1.0°C 85% 0.6 mph NE1.0 kmh NE 1.3 mph2.1 kmh 29.33 in993.2 mb 0.00 in0.0 mm 0.00 in0.0 mm 0.00 in0.0 mm
08:30 PM 37.2°F2.9°C 33.8°F1.0°C 85% 0.8 mph E1.3 kmh E 1.6 mph2.6 kmh 29.33 in993.2 mb 0.00 in0.0 mm 0.00 in0.0 mm 0.00 in0.0 mm
08:35 PM 37.2°F2.9°C 33.8°F1.0°C 86% 1.7 mph E2.7 kmh E 2.5 mph4.0 kmh 29.30 in992.2 mb 0.00 in0.0 mm 0.00 in0.0 mm 0.00 in0.0 mm
08:40 PM 37.0°F2.8°C 33.8°F1.0°C 86% 1.2 mph E1.9 kmh E 2.5 mph4.0 kmh 29.30 in992.2 mb 0.00 in0.0 mm 0.00 in0.0 mm 0.00 in0.0 mm
08:45 PM 37.2°F2.9°C 33.8°F1.0°C 86% 0.3 mph E0.5 kmh E 1.6 mph2.6 kmh 29.30 in992.2 mb 0.00 in0.0 mm 0.00 in0.0 mm 0.00 in0.0 mm
08:50 PM 37.2°F2.9°C 33.8°F1.0°C 86% 0.9 mph ENE1.4 kmh ENE 2.7 mph4.3 kmh 29.30 in992.2 mb 0.00 in0.0 mm 0.00 in0.0 mm 0.00 in0.0 mm
08:55 PM 37.4°F3.0°C 33.8°F1.0°C 86% 2.1 mph ENE3.4 kmh ENE 3.8 mph6.1 kmh 29.30 in992.2 mb 0.00 in0.0 mm 0.00 in0.0 mm 0.00 in0.0 mm
09:00 PM 37.8°F3.2°C 35.6°F2.0°C 87% 2.3 mph E3.7 kmh E 3.8 mph6.1 kmh 29.30 in992.2 mb 0.00 in0.0 mm 0.00 in0.0 mm 0.00 in0.0 mm
09:05 PM 37.9°F3.3°C 35.6°F2.0°C 87% 1.3 mph E2.1 kmh E 3.8 mph6.1 kmh 29.18 in988.1 mb 0.00 in0.0 mm 0.00 in0.0 mm 0.00 in0.0 mm
09:10 PM 38.1°F3.4°C 35.6°F2.0°C 87% 0.5 mph SE0.8 kmh SE 2.0 mph3.2 kmh 29.18 in988.1 mb 0.00 in0.0 mm 0.00 in0.0 mm 0.00 in0.0 mm
09:15 PM 38.3°F3.5°C 35.6°F2.0°C 87% 1.4 mph SE2.3 kmh SE 3.4 mph5.5 kmh 29.18 in988.1 mb 0.00 in0.0 mm 0.00 in0.0 mm 0.00 in0.0 mm
09:20 PM 38.5°F3.6°C 35.6°F2.0°C 87% 1.4 mph SE2.3 kmh SE 3.4 mph5.5 kmh 29.21 in989.2 mb 0.00 in0.0 mm 0.00 in0.0 mm 0.00 in0.0 mm
09:25 PM 38.8°F3.8°C 35.6°F2.0°C 87% 0.9 mph ESE1.4 kmh ESE 2.9 mph4.7 kmh 29.21 in989.2 mb 0.00 in0.0 mm 0.00 in0.0 mm 0.00 in0.0 mm
09:30 PM 38.8°F3.8°C 35.6°F2.0°C 87% 1.5 mph ESE2.4 kmh ESE 3.1 mph5.0 kmh 29.21 in989.2 mb 0.00 in0.0 mm 0.00 in0.0 mm 0.00 in0.0 mm
09:35 PM 39.2°F4.0°C 35.6°F2.0°C 88% 1.8 mph ESE2.9 kmh ESE 3.1 mph5.0 kmh 29.18 in988.1 mb 0.00 in0.0 mm 0.00 in0.0 mm 0.00 in0.0 mm
09:40 PM 39.6°F4.2°C 37.4°F3.0°C 88% 2.3 mph SE3.7 kmh SE 3.8 mph6.1 kmh 29.18 in988.1 mb 0.00 in0.0 mm 0.00 in0.0 mm 0.00 in0.0 mm
09:45 PM 39.6°F4.2°C 37.4°F3.0°C 88% 2.0 mph SE3.2 kmh SE 3.8 mph6.1 kmh 29.18 in988.1 mb 0.00 in0.0 mm 0.00 in0.0 mm 0.00 in0.0 mm
09:50 PM 39.6°F4.2°C 37.4°F3.0°C 88% 1.3 mph ESE2.1 kmh ESE 3.8 mph6.1 kmh 29.18 in988.1 mb 0.00 in0.0 mm 0.00 in0.0 mm 0.00 in0.0 mm
09:55 PM 39.7°F4.3°C 37.4°F3.0°C 88% 1.3 mph E2.1 kmh E 5.4 mph8.7 kmh 29.18 in988.1 mb 0.00 in0.0 mm 0.00 in0.0 mm 0.00 in0.0 mm
10:00 PM 39.7°F4.3°C 37.4°F3.0°C 87% 1.7 mph E2.7 kmh E 5.4 mph8.7 kmh 29.18 in988.1 mb 0.00 in0.0 mm 0.00 in0.0 mm 0.00 in0.0 mm
10:05 PM 39.7°F4.3°C 37.4°F3.0°C 87% 1.8 mph ESE2.9 kmh ESE 3.8 mph6.1 kmh 29.15 in987.1 mb 0.00 in0.0 mm 0.00 in0.0 mm 0.00 in0.0 mm
10:10 PM 39.7°F4.3°C 37.4°F3.0°C 87% 1.1 mph ESE1.8 kmh ESE 2.7 mph4.3 kmh 29.15 in987.1 mb 0.00 in0.0 mm 0.00 in0.0 mm 0.00 in0.0 mm
10:15 PM 39.7°F4.3°C 37.4°F3.0°C 87% 1.0 mph ESE1.6 kmh ESE 4.7 mph7.6 kmh 29.15 in987.1 mb 0.00 in0.0 mm 0.00 in0.0 mm 0.00 in0.0 mm
10:20 PM 39.6°F4.2°C 37.4°F3.0°C 87% 1.7 mph E2.7 kmh E 4.7 mph7.6 kmh 29.15 in987.1 mb 0.00 in0.0 mm 0.00 in0.0 mm 0.00 in0.0 mm
10:25 PM 39.4°F4.1°C 35.6°F2.0°C 87% 2.2 mph E3.5 kmh E 4.7 mph7.6 kmh 29.15 in987.1 mb 0.00 in0.0 mm 0.00 in0.0 mm 0.00 in0.0 mm
10:30 PM 39.2°F4.0°C 35.6°F2.0°C 87% 1.9 mph E3.1 kmh E 3.8 mph6.1 kmh 29.15 in987.1 mb 0.00 in0.0 mm 0.00 in0.0 mm 0.00 in0.0 mm
10:35 PM 39.4°F4.1°C 35.6°F2.0°C 87% 1.2 mph E1.9 kmh E 3.8 mph6.1 kmh 29.15 in987.1 mb 0.00 in0.0 mm 0.00 in0.0 mm 0.00 in0.0 mm
10:40 PM 39.4°F4.1°C 35.6°F2.0°C 87% 0.6 mph SE1.0 kmh SE 2.0 mph3.2 kmh 29.15 in987.1 mb 0.00 in0.0 mm 0.00 in0.0 mm 0.00 in0.0 mm
10:45 PM 39.7°F4.3°C 37.4°F3.0°C 87% 1.0 mph SE1.6 kmh SE 3.1 mph5.0 kmh 29.15 in987.1 mb 0.00 in0.0 mm 0.00 in0.0 mm 0.00 in0.0 mm
10:50 PM 39.6°F4.2°C 37.4°F3.0°C 87% 1.8 mph ESE2.9 kmh ESE 3.1 mph5.0 kmh 29.09 in985.1 mb 0.00 in0.0 mm 0.00 in0.0 mm 0.00 in0.0 mm
10:55 PM 39.6°F4.2°C 37.4°F3.0°C 87% 1.7 mph E2.7 kmh E 4.9 mph7.9 kmh 29.09 in985.1 mb 0.00 in0.0 mm 0.00 in0.0 mm 0.00 in0.0 mm
11:00 PM 39.6°F4.2°C 37.4°F3.0°C 87% 2.3 mph E3.7 kmh E 4.9 mph7.9 kmh 29.09 in985.1 mb 0.00 in0.0 mm 0.00 in0.0 mm 0.00 in0.0 mm
11:05 PM 39.4°F4.1°C 35.6°F2.0°C 87% 3.5 mph E5.6 kmh E 4.9 mph7.9 kmh 29.12 in986.1 mb 0.00 in0.0 mm 0.00 in0.0 mm 0.00 in0.0 mm
11:10 PM 39.4°F4.1°C 35.6°F2.0°C 87% 3.1 mph E5.0 kmh E 4.9 mph7.9 kmh 29.12 in986.1 mb 0.00 in0.0 mm 0.00 in0.0 mm 0.00 in0.0 mm
11:15 PM 39.4°F4.1°C 35.6°F2.0°C 87% 3.0 mph E4.8 kmh E 7.2 mph11.6 kmh 29.12 in986.1 mb 0.00 in0.0 mm 0.00 in0.0 mm 0.00 in0.0 mm
11:20 PM 39.2°F4.0°C 35.6°F2.0°C 87% 3.3 mph E5.3 kmh E 7.2 mph11.6 kmh 29.09 in985.1 mb 0.00 in0.0 mm 0.00 in0.0 mm 0.00 in0.0 mm
11:25 PM 39.0°F3.9°C 35.6°F2.0°C 87% 4.2 mph E6.8 kmh E 6.3 mph10.1 kmh 29.09 in985.1 mb 0.00 in0.0 mm 0.00 in0.0 mm 0.00 in0.0 mm
11:30 PM 39.2°F4.0°C 35.6°F2.0°C 87% 3.4 mph E5.5 kmh E 6.3 mph10.1 kmh 29.09 in985.1 mb 0.00 in0.0 mm 0.00 in0.0 mm 0.00 in0.0 mm
11:35 PM 39.4°F4.1°C 35.6°F2.0°C 87% 1.8 mph E2.9 kmh E 3.6 mph5.8 kmh 29.09 in985.1 mb 0.00 in0.0 mm 0.00 in0.0 mm 0.00 in0.0 mm
11:40 PM 39.4°F4.1°C 35.6°F2.0°C 87% 1.3 mph ESE2.1 kmh ESE 5.6 mph9.0 kmh 29.09 in985.1 mb 0.00 in0.0 mm 0.00 in0.0 mm 0.00 in0.0 mm
11:45 PM 39.6°F4.2°C 37.4°F3.0°C 87% 1.6 mph ESE2.6 kmh ESE 5.6 mph9.0 kmh 29.09 in985.1 mb 0.00 in0.0 mm 0.00 in0.0 mm 0.00 in0.0 mm
11:50 PM 39.6°F4.2°C 37.4°F3.0°C 87% 1.9 mph SE3.1 kmh SE 3.1 mph5.0 kmh 29.06 in984.1 mb 0.00 in0.0 mm 0.00 in0.0 mm 0.00 in0.0 mm
11:55 PM 39.6°F4.2°C 37.4°F3.0°C 87% 2.3 mph ESE3.7 kmh ESE 3.8 mph6.1 kmh 29.06 in984.1 mb 0.00 in0.0 mm 0.00 in0.0 mm 0.00 in0.0 mm